Time;durP1;ratioP1;P1;durP2;ratioP2;P2;SDS_P1;SDS_P2;PMS_P1;PMS_P2;Temp;Humidity;BMP_temperature;BMP_pressure;BME280_temperature;BME280_humidity;BME280_pressure;Samples;Min_cycle;Max_cycle;Signal;HPM_P1;HPM_P2
2022/05/30 00:00:33;;;;;;;0.00;0.00;;;;;;;;;;1757375;28;21741;-73
2022/05/30 00:01:25;;;;;;;0.00;0.00;;;;;;;;;;1760244;28;20209;-73
2022/05/30 00:02:16;;;;;;;0.00;0.00;;;;;;;;;;1758906;28;20212;-73
2022/05/30 00:03:09;;;;;;;0.00;0.00;;;;;;;;;;1760002;28;20208;-73
2022/05/30 00:04:00;;;;;;;0.00;0.00;;;;;;;;;;1759202;28;20201;-73
2022/05/30 00:04:52;;;;;;;0.00;0.00;;;;;;;;;;1759728;28;20599;-73
2022/05/30 00:05:46;;;;;;;0.00;0.00;;;;;;;;;;1757006;28;20229;-73
2022/05/30 00:06:39;;;;;;;0.00;0.00;;;;;;;;;;1759595;28;20205;-73
2022/05/30 00:07:30;;;;;;;0.00;0.00;;;;;;;;;;1759258;28;20445;-73
2022/05/30 00:08:23;;;;;;;0.00;0.00;;;;;;;;;;1759475;28;20261;-73
2022/05/30 00:09:14;;;;;;;0.00;0.00;;;;;;;;;;1759606;28;20309;-73
2022/05/30 00:10:08;;;;;;;0.00;0.00;;;;;;;;;;1759528;28;20450;-73
2022/05/30 00:11:01;;;;;;;0.00;0.00;;;;;;;;;;1757861;28;20233;-73
2022/05/30 00:11:53;;;;;;;0.00;0.00;;;;;;;;;;1758477;28;20211;-73
2022/05/30 00:12:44;;;;;;;0.00;0.00;;;;;;;;;;1757243;28;20205;-73
2022/05/30 00:13:37;;;;;;;0.00;0.00;;;;;;;;;;1759037;28;20212;-73
2022/05/30 00:14:28;;;;;;;0.00;0.00;;;;;;;;;;1759612;28;20242;-73
2022/05/30 00:15:21;;;;;;;0.00;0.00;;;;;;;;;;1756647;28;20220;-73
2022/05/30 00:16:13;;;;;;;0.00;0.00;;;;;;;;;;1760289;28;20534;-73
2022/05/30 00:17:07;;;;;;;0.00;0.00;;;;;;;;;;1759172;28;20292;-73
2022/05/30 00:17:59;;;;;;;0.00;0.00;;;;;;;;;;1759008;28;20208;-73
2022/05/30 00:18:52;;;;;;;0.00;0.00;;;;;;;;;;1759099;28;20201;-73
2022/05/30 00:19:43;;;;;;;0.00;0.00;;;;;;;;;;1752958;28;20197;-73
2022/05/30 00:20:36;;;;;;;0.00;0.00;;;;;;;;;;1757846;28;20619;-73
2022/05/30 00:21:27;;;;;;;0.00;0.00;;;;;;;;;;1760843;28;20593;-73
2022/05/30 00:22:21;;;;;;;0.00;0.00;;;;;;;;;;1760864;28;20719;-73
2022/05/30 00:23:12;;;;;;;0.00;0.00;;;;;;;;;;1761569;28;20208;-73
2022/05/30 00:24:04;;;;;;;0.00;0.00;;;;;;;;;;1759951;28;20696;-73
2022/05/30 00:24:56;;;;;;;0.00;0.00;;;;;;;;;;1761044;28;20662;-73
2022/05/30 00:25:48;;;;;;;0.10;0.10;;;;;;;;;;1759441;27;20692;-73
2022/05/30 00:26:39;;;;;;;0.00;0.00;;;;;;;;;;1760923;28;20208;-73
2022/05/30 00:27:32;;;;;;;0.00;0.00;;;;;;;;;;1760672;28;20295;-73
2022/05/30 00:28:23;;;;;;;0.00;0.00;;;;;;;;;;1760258;28;20200;-72
2022/05/30 00:29:15;;;;;;;0.00;0.00;;;;;;;;;;1761273;28;20202;-72
2022/05/30 00:30:07;;;;;;;0.00;0.00;;;;;;;;;;1759333;28;20212;-72
2022/05/30 00:30:59;;;;;;;0.00;0.00;;;;;;;;;;1759202;28;20259;-72
2022/05/30 00:31:51;;;;;;;0.00;0.00;;;;;;;;;;1760520;28;20208;-73
2022/05/30 00:32:43;;;;;;;0.00;0.00;;;;;;;;;;1760962;28;20200;-73
2022/05/30 00:33:34;;;;;;;0.00;0.00;;;;;;;;;;1760704;28;20407;-73
2022/05/30 00:34:27;;;;;;;0.00;0.00;;;;;;;;;;1761015;28;20227;-73
2022/05/30 00:35:18;;;;;;;0.00;0.00;;;;;;;;;;1759046;28;20204;-73
2022/05/30 00:36:11;;;;;;;0.00;0.00;;;;;;;;;;1760926;28;20272;-73
2022/05/30 00:37:02;;;;;;;0.00;0.00;;;;;;;;;;1759745;28;20215;-73
2022/05/30 00:37:56;;;;;;;0.00;0.00;;;;;;;;;;1761279;28;20209;-72
2022/05/30 00:38:47;;;;;;;0.00;0.00;;;;;;;;;;1760062;27;20209;-72
2022/05/30 00:39:39;;;;;;;0.00;0.00;;;;;;;;;;1761195;28;20200;-72
2022/05/30 00:40:31;;;;;;;0.00;0.00;;;;;;;;;;1759008;28;20201;-72
2022/05/30 00:41:23;;;;;;;0.00;0.00;;;;;;;;;;1754177;28;20563;-72
2022/05/30 00:42:16;;;;;;;0.00;0.00;;;;;;;;;;1751482;28;20633;-72
2022/05/30 00:43:18;;;;;;;0.00;0.00;;;;;;;;;;1753983;28;20201;-72
2022/05/30 00:44:09;;;;;;;0.00;0.00;;;;;;;;;;1753273;28;20454;-72
2022/05/30 00:45:03;;;;;;;0.00;0.00;;;;;;;;;;1753526;28;20291;-72
2022/05/30 00:45:55;;;;;;;0.00;0.00;;;;;;;;;;1752620;28;20581;-72
2022/05/30 00:46:47;;;;;;;0.00;0.00;;;;;;;;;;1752825;28;20232;-73
2022/05/30 00:47:38;;;;;;;0.00;0.00;;;;;;;;;;1752975;28;20210;-73
2022/05/30 00:48:32;;;;;;;0.00;0.00;;;;;;;;;;1748083;28;20263;-72
2022/05/30 00:49:23;;;;;;;0.00;0.00;;;;;;;;;;1754086;28;20201;-72
2022/05/30 00:50:19;;;;;;;0.00;0.00;;;;;;;;;;1752375;28;20213;-73
2022/05/30 00:51:12;;;;;;;0.00;0.00;;;;;;;;;;1753948;28;20205;-73
2022/05/30 00:52:07;;;;;;;0.00;0.00;;;;;;;;;;1753489;28;20330;-73
2022/05/30 00:53:00;;;;;;;0.00;0.00;;;;;;;;;;1753692;28;20624;-73
2022/05/30 00:53:54;;;;;;;0.00;0.00;;;;;;;;;;1753630;28;20216;-73
2022/05/30 00:54:47;;;;;;;0.00;0.00;;;;;;;;;;1746108;28;20210;-73
2022/05/30 00:55:39;;;;;;;0.00;0.00;;;;;;;;;;1751562;28;20233;-73
2022/05/30 00:56:33;;;;;;;0.00;0.00;;;;;;;;;;1754305;28;20579;-73
2022/05/30 00:57:26;;;;;;;0.00;0.00;;;;;;;;;;1752923;28;20426;-73
2022/05/30 00:58:18;;;;;;;0.00;0.00;;;;;;;;;;1753645;28;20201;-73
2022/05/30 00:59:10;;;;;;;0.00;0.00;;;;;;;;;;1753473;28;20221;-73
2022/05/30 01:00:05;;;;;;;0.00;0.00;;;;;;;;;;1753368;28;20202;-73
2022/05/30 01:00:57;;;;;;;0.00;0.00;;;;;;;;;;1750304;28;20263;-73
2022/05/30 01:01:49;;;;;;;0.00;0.00;;;;;;;;;;1753417;28;20205;-73
2022/05/30 01:02:41;;;;;;;0.00;0.00;;;;;;;;;;1753894;28;20610;-73
2022/05/30 01:07:04;;;;;;;0.00;0.00;;;;;;;;;;1752305;28;20406;-73
2022/05/30 01:07:59;;;;;;;0.00;0.00;;;;;;;;;;1746583;28;20582;-73
2022/05/30 01:08:53;;;;;;;0.00;0.00;;;;;;;;;;1745681;28;20202;-73
2022/05/30 01:09:45;;;;;;;0.00;0.00;;;;;;;;;;1745119;28;20233;-73
2022/05/30 01:10:37;;;;;;;0.00;0.00;;;;;;;;;;1751035;28;20244;-73
2022/05/30 01:11:29;;;;;;;0.00;0.00;;;;;;;;;;1753742;28;20201;-73
2022/05/30 01:12:33;;;;;;;0.00;0.00;;;;;;;;;;1752974;28;20201;-72
2022/05/30 01:13:27;;;;;;;0.00;0.00;;;;;;;;;;1752917;28;20416;-72
2022/05/30 01:14:19;;;;;;;0.00;0.00;;;;;;;;;;1752641;28;20205;-72
2022/05/30 01:15:13;;;;;;;0.00;0.00;;;;;;;;;;1752843;28;20190;-73
2022/05/30 01:16:05;;;;;;;0.00;0.00;;;;;;;;;;1752573;28;20602;-73
2022/05/30 01:16:57;;;;;;;0.00;0.00;;;;;;;;;;1752979;28;20245;-73
2022/05/30 01:17:50;;;;;;;0.00;0.00;;;;;;;;;;1753664;28;20263;-73
2022/05/30 01:18:43;;;;;;;0.00;0.00;;;;;;;;;;1752964;28;20197;-73
2022/05/30 01:19:42;;;;;;;0.00;0.00;;;;;;;;;;1753289;28;20201;-73
2022/05/30 01:20:37;;;;;;;0.00;0.00;;;;;;;;;;1751961;28;20287;-73
2022/05/30 01:21:38;;;;;;;0.00;0.00;;;;;;;;;;1753796;28;20204;-73
2022/05/30 01:22:42;;;;;;;0.00;0.00;;;;;;;;;;1753375;28;20201;-73
2022/05/30 01:23:40;;;;;;;0.00;0.00;;;;;;;;;;1753294;28;20213;-73
2022/05/30 01:24:39;;;;;;;0.00;0.00;;;;;;;;;;1751700;28;20202;-73
2022/05/30 01:25:43;;;;;;;0.00;0.00;;;;;;;;;;1751060;28;20214;-73
2022/05/30 01:26:45;;;;;;;0.00;0.00;;;;;;;;;;1746981;28;20212;-73
2022/05/30 01:27:41;;;;;;;0.00;0.00;;;;;;;;;;1753786;28;20855;-73
2022/05/30 01:28:41;;;;;;;0.10;0.10;;;;;;;;;;1752896;28;20233;-73
2022/05/30 01:29:35;;;;;;;0.00;0.00;;;;;;;;;;1752634;28;20198;-73
2022/05/30 01:30:28;;;;;;;0.00;0.00;;;;;;;;;;1751039;28;20270;-73
2022/05/30 01:31:20;;;;;;;0.00;0.00;;;;;;;;;;1752706;28;20205;-73
2022/05/30 01:32:17;;;;;;;0.00;0.00;;;;;;;;;;1751904;28;20733;-73
2022/05/30 01:33:08;;;;;;;0.00;0.00;;;;;;;;;;1747136;28;20183;-73
2022/05/30 01:34:01;;;;;;;0.00;0.00;;;;;;;;;;1752814;28;20193;-73
2022/05/30 01:34:52;;;;;;;0.00;0.00;;;;;;;;;;1753766;28;20212;-73
2022/05/30 01:35:44;;;;;;;0.00;0.00;;;;;;;;;;1751779;28;20225;-73
2022/05/30 01:36:36;;;;;;;0.00;0.00;;;;;;;;;;1753612;28;20213;-73
2022/05/30 01:37:28;;;;;;;0.00;0.00;;;;;;;;;;1752357;28;20202;-73
2022/05/30 01:38:21;;;;;;;0.00;0.00;;;;;;;;;;1753614;28;20374;-73
2022/05/30 01:39:13;;;;;;;0.00;0.00;;;;;;;;;;1753436;28;20198;-73
2022/05/30 01:40:05;;;;;;;0.00;0.00;;;;;;;;;;1753474;28;20194;-73
2022/05/30 01:40:59;;;;;;;0.00;0.00;;;;;;;;;;1748341;28;20222;-73
2022/05/30 01:41:50;;;;;;;0.00;0.00;;;;;;;;;;1756822;28;20241;-73
2022/05/30 01:42:42;;;;;;;0.00;0.00;;;;;;;;;;1760523;28;20205;-73
2022/05/30 01:43:34;;;;;;;0.00;0.00;;;;;;;;;;1759465;28;20224;-73
2022/05/30 01:44:28;;;;;;;0.05;0.05;;;;;;;;;;1760875;28;20209;-73
2022/05/30 01:45:19;;;;;;;0.00;0.00;;;;;;;;;;1758305;28;20217;-73
2022/05/30 01:46:12;;;;;;;0.00;0.00;;;;;;;;;;1760933;28;20197;-73
2022/05/30 01:47:04;;;;;;;0.00;0.00;;;;;;;;;;1759122;28;20197;-73
2022/05/30 01:47:56;;;;;;;0.00;0.00;;;;;;;;;;1757626;28;20205;-73
2022/05/30 01:48:47;;;;;;;0.00;0.00;;;;;;;;;;1757704;28;20212;-73
2022/05/30 01:49:40;;;;;;;0.00;0.00;;;;;;;;;;1760039;28;20312;-73
2022/05/30 01:50:31;;;;;;;0.00;0.00;;;;;;;;;;1758726;28;20205;-73
2022/05/30 01:51:23;;;;;;;0.00;0.00;;;;;;;;;;1753060;28;20296;-73
2022/05/30 01:52:14;;;;;;;0.00;0.00;;;;;;;;;;1759246;27;20197;-73
2022/05/30 01:53:07;;;;;;;0.00;0.00;;;;;;;;;;1760678;28;20207;-73
2022/05/30 01:53:59;;;;;;;0.00;0.00;;;;;;;;;;1760451;27;20227;-73
2022/05/30 01:54:51;;;;;;;0.00;0.00;;;;;;;;;;1760997;28;20215;-73
2022/05/30 01:55:42;;;;;;;0.00;0.00;;;;;;;;;;1757884;28;20423;-73
2022/05/30 01:56:34;;;;;;;0.00;0.00;;;;;;;;;;1760384;28;20296;-73
2022/05/30 01:57:25;;;;;;;0.00;0.00;;;;;;;;;;1759791;28;20219;-73
2022/05/30 01:58:18;;;;;;;0.00;0.00;;;;;;;;;;1760579;28;20911;-73
2022/05/30 01:59:09;;;;;;;0.00;0.00;;;;;;;;;;1760303;28;20197;-73
2022/05/30 02:00:02;;;;;;;0.00;0.00;;;;;;;;;;1760505;28;20204;-73
2022/05/30 02:00:54;;;;;;;0.00;0.00;;;;;;;;;;1758867;28;20247;-73
2022/05/30 02:01:46;;;;;;;0.00;0.00;;;;;;;;;;1758847;27;20277;-73
2022/05/30 02:02:37;;;;;;;0.00;0.00;;;;;;;;;;1760534;28;20220;-73
2022/05/30 02:03:30;;;;;;;0.00;0.00;;;;;;;;;;1760390;28;20204;-73
2022/05/30 02:04:21;;;;;;;0.00;0.00;;;;;;;;;;1760681;28;20239;-73
2022/05/30 02:05:13;;;;;;;0.00;0.00;;;;;;;;;;1759391;28;20205;-73
2022/05/30 02:06:05;;;;;;;0.00;0.00;;;;;;;;;;1757546;28;20833;-73
2022/05/30 02:06:57;;;;;;;0.00;0.00;;;;;;;;;;1759564;28;20359;-73
2022/05/30 02:07:48;;;;;;;0.00;0.00;;;;;;;;;;1759649;28;20546;-73
2022/05/30 02:08:40;;;;;;;0.00;0.00;;;;;;;;;;1759963;28;21203;-73
2022/05/30 02:09:31;;;;;;;0.00;0.00;;;;;;;;;;1760810;28;20201;-73
2022/05/30 02:10:23;;;;;;;0.00;0.00;;;;;;;;;;1758228;28;20597;-73
2022/05/30 02:11:16;;;;;;;0.00;0.00;;;;;;;;;;1760972;28;20193;-73
2022/05/30 02:12:08;;;;;;;0.00;0.00;;;;;;;;;;1759858;28;20571;-73
2022/05/30 02:13:00;;;;;;;0.00;0.00;;;;;;;;;;1760694;28;20201;-73
2022/05/30 02:13:52;;;;;;;0.00;0.00;;;;;;;;;;1759418;27;20200;-73
2022/05/30 02:14:44;;;;;;;0.00;0.00;;;;;;;;;;1757944;28;20216;-73
2022/05/30 02:17:02;;;;;;;0.00;0.00;;;;;;;;;;1759629;27;20289;-73
2022/05/30 02:17:54;;;;;;;0.00;0.00;;;;;;;;;;1759294;28;20197;-73
2022/05/30 02:18:45;;;;;;;0.00;0.00;;;;;;;;;;1759837;28;20303;-73
2022/05/30 02:19:39;;;;;;;0.00;0.00;;;;;;;;;;1760225;28;20605;-73
2022/05/30 02:20:30;;;;;;;0.00;0.00;;;;;;;;;;1757819;28;20635;-73
2022/05/30 02:21:22;;;;;;;0.00;0.00;;;;;;;;;;1760190;28;20197;-73
2022/05/30 02:22:15;;;;;;;0.00;0.00;;;;;;;;;;1759738;28;20201;-73
2022/05/30 02:23:07;;;;;;;0.00;0.00;;;;;;;;;;1760466;28;20212;-73
2022/05/30 02:23:59;;;;;;;0.00;0.00;;;;;;;;;;1759888;28;20201;-73
2022/05/30 02:24:51;;;;;;;0.00;0.00;;;;;;;;;;1760573;28;20635;-73
2022/05/30 02:25:43;;;;;;;0.00;0.00;;;;;;;;;;1758274;28;20243;-73
2022/05/30 02:26:36;;;;;;;0.00;0.00;;;;;;;;;;1759635;28;20391;-73
2022/05/30 02:27:27;;;;;;;0.00;0.00;;;;;;;;;;1759621;28;20205;-73
2022/05/30 02:28:20;;;;;;;0.00;0.00;;;;;;;;;;1759904;28;20631;-73
2022/05/30 02:29:11;;;;;;;0.00;0.00;;;;;;;;;;1759414;28;20626;-73
2022/05/30 02:30:03;;;;;;;0.00;0.00;;;;;;;;;;1754272;28;20480;-73
2022/05/30 02:30:57;;;;;;;0.00;0.00;;;;;;;;;;1755846;28;20232;-73
2022/05/30 02:31:49;;;;;;;0.00;0.00;;;;;;;;;;1759666;27;20201;-73
2022/05/30 02:32:40;;;;;;;0.00;0.00;;;;;;;;;;1759352;28;20215;-73
2022/05/30 02:37:11;;;;;;;0.00;0.00;;;;;;;;;;1751007;28;20200;-73
2022/05/30 02:38:02;;;;;;;0.00;0.00;;;;;;;;;;1760141;28;20220;-73
2022/05/30 02:38:54;;;;;;;0.00;0.00;;;;;;;;;;1758756;28;20436;-73
2022/05/30 02:39:45;;;;;;;0.00;0.00;;;;;;;;;;1760794;28;20208;-73
2022/05/30 02:40:37;;;;;;;0.00;0.00;;;;;;;;;;1758034;28;20554;-73
2022/05/30 02:41:28;;;;;;;0.00;0.00;;;;;;;;;;1759894;28;20578;-73
2022/05/30 02:42:21;;;;;;;0.00;0.00;;;;;;;;;;1759656;28;20216;-73
2022/05/30 02:43:13;;;;;;;0.00;0.00;;;;;;;;;;1760025;28;20201;-73
2022/05/30 02:44:05;;;;;;;0.00;0.00;;;;;;;;;;1759395;28;20625;-73
2022/05/30 02:44:59;;;;;;;0.00;0.00;;;;;;;;;;1759593;28;20228;-73
2022/05/30 02:45:51;;;;;;;0.00;0.00;;;;;;;;;;1758455;28;20229;-73
2022/05/30 02:46:44;;;;;;;0.00;0.00;;;;;;;;;;1759781;28;20208;-73
2022/05/30 02:47:38;;;;;;;0.00;0.00;;;;;;;;;;1759493;28;20666;-73
2022/05/30 02:48:29;;;;;;;0.00;0.00;;;;;;;;;;1755314;28;20233;-73
2022/05/30 02:49:22;;;;;;;0.00;0.00;;;;;;;;;;1759641;28;20633;-73
2022/05/30 02:50:13;;;;;;;0.00;0.00;;;;;;;;;;1758507;28;20216;-73
2022/05/30 02:51:06;;;;;;;0.00;0.00;;;;;;;;;;1758998;28;20673;-73
2022/05/30 02:51:57;;;;;;;0.00;0.00;;;;;;;;;;1759478;28;20707;-73
2022/05/30 02:52:49;;;;;;;0.00;0.00;;;;;;;;;;1760380;28;20197;-73
2022/05/30 02:53:40;;;;;;;0.00;0.00;;;;;;;;;;1759382;28;20212;-73
2022/05/30 02:54:32;;;;;;;0.00;0.00;;;;;;;;;;1760224;28;20262;-73
2022/05/30 02:55:24;;;;;;;0.00;0.00;;;;;;;;;;1757965;28;20256;-73
2022/05/30 02:56:17;;;;;;;0.00;0.00;;;;;;;;;;1760155;28;20390;-73
2022/05/30 02:57:08;;;;;;;0.00;0.00;;;;;;;;;;1758974;28;20511;-73
2022/05/30 02:58:01;;;;;;;0.00;0.00;;;;;;;;;;1760223;28;20204;-73
2022/05/30 02:58:52;;;;;;;0.00;0.00;;;;;;;;;;1759763;28;20212;-73
2022/05/30 02:59:44;;;;;;;0.00;0.00;;;;;;;;;;1753213;28;20549;-72
2022/05/30 03:00:35;;;;;;;0.00;0.00;;;;;;;;;;1757229;28;20237;-73
2022/05/30 03:01:28;;;;;;;0.00;0.00;;;;;;;;;;1760229;28;20670;-72
2022/05/30 03:02:20;;;;;;;0.00;0.00;;;;;;;;;;1758828;28;20698;-72
2022/05/30 03:03:12;;;;;;;0.00;0.00;;;;;;;;;;1759840;28;20205;-72
2022/05/30 03:04:05;;;;;;;0.08;0.08;;;;;;;;;;1759524;28;20201;-73
2022/05/30 03:04:57;;;;;;;0.00;0.00;;;;;;;;;;1760113;28;20495;-73
2022/05/30 03:05:48;;;;;;;0.00;0.00;;;;;;;;;;1758326;28;20265;-73
2022/05/30 03:06:40;;;;;;;0.00;0.00;;;;;;;;;;1759842;28;20204;-72
2022/05/30 03:07:32;;;;;;;0.00;0.00;;;;;;;;;;1758407;28;20215;-72
2022/05/30 03:08:24;;;;;;;0.00;0.00;;;;;;;;;;1759333;28;20208;-72
2022/05/30 03:09:16;;;;;;;0.00;0.00;;;;;;;;;;1758913;28;20201;-72
2022/05/30 03:10:08;;;;;;;0.00;0.00;;;;;;;;;;1759508;28;20201;-72
2022/05/30 03:11:00;;;;;;;0.00;0.00;;;;;;;;;;1758406;28;20290;-72
2022/05/30 03:11:52;;;;;;;0.00;0.00;;;;;;;;;;1759529;28;20204;-72
2022/05/30 03:12:43;;;;;;;0.00;0.00;;;;;;;;;;1759850;28;20527;-72
2022/05/30 03:13:35;;;;;;;0.00;0.00;;;;;;;;;;1759744;28;20645;-72
2022/05/30 03:14:26;;;;;;;0.00;0.00;;;;;;;;;;1759654;28;20233;-72
2022/05/30 03:15:19;;;;;;;0.00;0.00;;;;;;;;;;1756893;28;20196;-73
2022/05/30 03:16:10;;;;;;;0.00;0.00;;;;;;;;;;1755171;28;20523;-73
2022/05/30 03:17:02;;;;;;;0.00;0.00;;;;;;;;;;1756423;28;20262;-73
2022/05/30 03:17:55;;;;;;;0.00;0.00;;;;;;;;;;1760364;28;20216;-73
2022/05/30 03:18:47;;;;;;;0.00;0.00;;;;;;;;;;1759552;28;20247;-73
2022/05/30 03:19:38;;;;;;;0.00;0.00;;;;;;;;;;1760405;28;20209;-73
2022/05/30 03:20:31;;;;;;;0.00;0.00;;;;;;;;;;1757633;28;20292;-73
2022/05/30 03:21:22;;;;;;;0.00;0.00;;;;;;;;;;1758836;28;20205;-73
2022/05/30 03:22:14;;;;;;;0.00;0.00;;;;;;;;;;1759424;28;20201;-73
2022/05/30 03:23:05;;;;;;;0.00;0.00;;;;;;;;;;1760119;28;20197;-73
2022/05/30 03:23:58;;;;;;;0.00;0.00;;;;;;;;;;1759294;28;20600;-73
2022/05/30 03:24:49;;;;;;;0.00;0.00;;;;;;;;;;1760116;28;20209;-73
2022/05/30 03:25:41;;;;;;;0.00;0.00;;;;;;;;;;1758046;28;20247;-73
2022/05/30 03:26:32;;;;;;;0.00;0.00;;;;;;;;;;1759666;28;20627;-73
2022/05/30 03:27:25;;;;;;;0.00;0.00;;;;;;;;;;1758178;28;20534;-73
2022/05/30 03:28:16;;;;;;;0.00;0.00;;;;;;;;;;1759942;28;20249;-73
2022/05/30 03:29:08;;;;;;;0.00;0.00;;;;;;;;;;1759697;28;20205;-73
2022/05/30 03:29:59;;;;;;;0.00;0.00;;;;;;;;;;1753489;28;20206;-73
2022/05/30 03:30:52;;;;;;;0.10;0.10;;;;;;;;;;1758042;28;20863;-73
2022/05/30 03:31:43;;;;;;;0.00;0.00;;;;;;;;;;1759272;28;20197;-73
2022/05/30 03:32:35;;;;;;;0.00;0.00;;;;;;;;;;1759646;28;20192;-73
2022/05/30 03:33:28;;;;;;;0.00;0.00;;;;;;;;;;1758317;28;20508;-73
2022/05/30 03:34:20;;;;;;;0.00;0.00;;;;;;;;;;1759804;28;20201;-73
2022/05/30 03:35:12;;;;;;;0.00;0.00;;;;;;;;;;1758396;28;20197;-73
2022/05/30 03:36:07;;;;;;;0.00;0.00;;;;;;;;;;1759532;28;20304;-73
2022/05/30 03:36:59;;;;;;;0.00;0.00;;;;;;;;;;1759031;28;20236;-73
2022/05/30 03:37:51;;;;;;;0.00;0.00;;;;;;;;;;1759704;28;20283;-73
2022/05/30 03:38:43;;;;;;;0.00;0.00;;;;;;;;;;1759110;28;20205;-73
2022/05/30 03:39:35;;;;;;;0.00;0.00;;;;;;;;;;1759251;28;20544;-73
2022/05/30 03:40:29;;;;;;;0.00;0.00;;;;;;;;;;1757577;28;20247;-73
2022/05/30 03:41:20;;;;;;;0.00;0.00;;;;;;;;;;1759615;28;20634;-73
2022/05/30 03:42:14;;;;;;;0.00;0.00;;;;;;;;;;1758918;28;20240;-73
2022/05/30 03:43:08;;;;;;;0.00;0.00;;;;;;;;;;1753327;28;20284;-73
2022/05/30 03:44:01;;;;;;;0.00;0.00;;;;;;;;;;1758733;28;20434;-73
2022/05/30 03:44:55;;;;;;;0.00;0.00;;;;;;;;;;1760149;28;20211;-73
2022/05/30 03:45:47;;;;;;;0.00;0.00;;;;;;;;;;1757265;28;20319;-73
2022/05/30 03:46:38;;;;;;;0.00;0.00;;;;;;;;;;1759117;28;20208;-73
2022/05/30 03:47:36;;;;;;;0.00;0.00;;;;;;;;;;1759218;28;20257;-73
2022/05/30 03:48:28;;;;;;;0.00;0.00;;;;;;;;;;1754595;28;20627;-73
2022/05/30 03:49:21;;;;;;;0.00;0.00;;;;;;;;;;1759712;28;20197;-73
2022/05/30 03:50:14;;;;;;;0.00;0.00;;;;;;;;;;1758491;28;20201;-73
2022/05/30 03:51:12;;;;;;;0.00;0.00;;;;;;;;;;1756694;28;20606;-73
2022/05/30 03:52:03;;;;;;;0.00;0.00;;;;;;;;;;1758486;28;20294;-73
2022/05/30 03:52:55;;;;;;;0.00;0.00;;;;;;;;;;1759927;28;20201;-73
2022/05/30 03:53:46;;;;;;;0.00;0.00;;;;;;;;;;1758365;28;20214;-73
2022/05/30 03:54:39;;;;;;;0.00;0.00;;;;;;;;;;1759776;28;20228;-73
2022/05/30 03:55:30;;;;;;;0.00;0.00;;;;;;;;;;1757635;28;20209;-73
2022/05/30 03:56:22;;;;;;;0.00;0.00;;;;;;;;;;1759812;28;20275;-73
2022/05/30 03:57:14;;;;;;;0.00;0.00;;;;;;;;;;1758898;28;20220;-72
2022/05/30 03:58:07;;;;;;;0.00;0.00;;;;;;;;;;1759012;28;20193;-72
2022/05/30 03:58:58;;;;;;;0.00;0.00;;;;;;;;;;1759597;28;20563;-72
2022/05/30 03:59:50;;;;;;;0.00;0.00;;;;;;;;;;1760090;28;20204;-72
2022/05/30 04:00:43;;;;;;;0.00;0.00;;;;;;;;;;1754614;28;20248;-72
2022/05/30 04:01:35;;;;;;;0.00;0.00;;;;;;;;;;1760112;28;20390;-72
2022/05/30 04:02:27;;;;;;;0.00;0.00;;;;;;;;;;1759160;28;20549;-72
2022/05/30 04:03:18;;;;;;;0.00;0.00;;;;;;;;;;1759278;28;20212;-72
2022/05/30 04:04:12;;;;;;;0.00;0.00;;;;;;;;;;1758758;28;20205;-72
2022/05/30 04:05:03;;;;;;;0.00;0.00;;;;;;;;;;1759404;28;20205;-72
2022/05/30 04:05:56;;;;;;;0.00;0.00;;;;;;;;;;1758552;28;20232;-72
2022/05/30 04:06:47;;;;;;;0.00;0.00;;;;;;;;;;1759321;28;20530;-72
2022/05/30 04:07:39;;;;;;;0.00;0.00;;;;;;;;;;1759626;28;20674;-72
2022/05/30 04:08:30;;;;;;;0.00;0.00;;;;;;;;;;1759017;28;20260;-72
2022/05/30 04:09:23;;;;;;;0.00;0.00;;;;;;;;;;1759770;28;20190;-72
2022/05/30 04:10:14;;;;;;;0.00;0.00;;;;;;;;;;1757899;28;20213;-72
2022/05/30 04:11:06;;;;;;;0.00;0.00;;;;;;;;;;1758998;28;20747;-72
2022/05/30 04:11:57;;;;;;;0.00;0.00;;;;;;;;;;1759229;28;20220;-72
2022/05/30 04:12:49;;;;;;;0.00;0.00;;;;;;;;;;1759664;28;20261;-72
2022/05/30 04:13:41;;;;;;;0.00;0.00;;;;;;;;;;1758956;28;20239;-73
2022/05/30 04:14:33;;;;;;;0.00;0.00;;;;;;;;;;1762888;28;20204;-73
2022/05/30 04:15:24;;;;;;;0.00;0.00;;;;;;;;;;1754568;28;20205;-73
2022/05/30 04:16:17;;;;;;;0.00;0.00;;;;;;;;;;1753759;28;20216;-73
2022/05/30 04:17:08;;;;;;;0.00;0.00;;;;;;;;;;1756739;28;20196;-72
2022/05/30 04:18:00;;;;;;;0.00;0.00;;;;;;;;;;1759888;28;20235;-73
2022/05/30 04:18:51;;;;;;;0.00;0.00;;;;;;;;;;1759072;28;20205;-72
2022/05/30 04:19:45;;;;;;;0.00;0.00;;;;;;;;;;1752979;28;20468;-72
2022/05/30 04:20:36;;;;;;;0.00;0.00;;;;;;;;;;1757022;28;20708;-73
2022/05/30 04:21:28;;;;;;;0.00;0.00;;;;;;;;;;1759343;28;20780;-73
2022/05/30 04:22:20;;;;;;;0.00;0.00;;;;;;;;;;1758283;28;20354;-73
2022/05/30 04:23:12;;;;;;;0.00;0.00;;;;;;;;;;1759816;28;20213;-73
2022/05/30 04:24:03;;;;;;;0.00;0.00;;;;;;;;;;1759293;28;20647;-73
2022/05/30 04:24:56;;;;;;;0.00;0.00;;;;;;;;;;1759593;28;20573;-73
2022/05/30 04:25:47;;;;;;;0.00;0.00;;;;;;;;;;1757915;28;20467;-73
2022/05/30 04:26:39;;;;;;;0.00;0.00;;;;;;;;;;1759593;28;20282;-73
2022/05/30 04:27:32;;;;;;;0.00;0.00;;;;;;;;;;1758963;28;20201;-73
2022/05/30 04:28:25;;;;;;;0.00;0.00;;;;;;;;;;1758628;28;20207;-73
2022/05/30 04:29:16;;;;;;;0.00;0.00;;;;;;;;;;1758618;28;20209;-73
2022/05/30 04:30:09;;;;;;;0.00;0.00;;;;;;;;;;1753669;28;20209;-73
2022/05/30 04:31:04;;;;;;;0.00;0.00;;;;;;;;;;1758129;28;20232;-73
2022/05/30 04:31:56;;;;;;;0.00;0.00;;;;;;;;;;1759227;28;20197;-73
2022/05/30 04:32:48;;;;;;;0.00;0.00;;;;;;;;;;1759904;28;20213;-73
2022/05/30 04:33:40;;;;;;;0.00;0.00;;;;;;;;;;1758602;28;20844;-73
2022/05/30 04:34:32;;;;;;;0.00;0.00;;;;;;;;;;1758885;28;20201;-73
2022/05/30 04:35:25;;;;;;;0.00;0.00;;;;;;;;;;1757219;28;20714;-73
2022/05/30 04:36:17;;;;;;;0.00;0.00;;;;;;;;;;1760278;28;20189;-72
2022/05/30 04:37:09;;;;;;;0.00;0.00;;;;;;;;;;1759007;28;20201;-72
2022/05/30 04:38:00;;;;;;;0.00;0.00;;;;;;;;;;1759423;28;20200;-72
2022/05/30 04:38:52;;;;;;;0.00;0.00;;;;;;;;;;1759192;28;20283;-72
2022/05/30 04:39:43;;;;;;;0.03;0.03;;;;;;;;;;1754166;28;20262;-72
2022/05/30 04:40:36;;;;;;;0.00;0.00;;;;;;;;;;1756991;28;20232;-72
2022/05/30 04:41:27;;;;;;;0.00;0.00;;;;;;;;;;1751878;28;20205;-73
2022/05/30 04:42:19;;;;;;;0.00;0.00;;;;;;;;;;1751502;28;20201;-73
2022/05/30 04:43:11;;;;;;;0.00;0.00;;;;;;;;;;1752814;28;20244;-73
2022/05/30 04:44:03;;;;;;;0.00;0.00;;;;;;;;;;1752274;28;20213;-73
2022/05/30 04:44:54;;;;;;;0.00;0.00;;;;;;;;;;1752894;28;20254;-73
2022/05/30 04:45:46;;;;;;;0.00;0.00;;;;;;;;;;1750838;28;20232;-73
2022/05/30 04:46:37;;;;;;;0.00;0.00;;;;;;;;;;1750835;28;20564;-73
2022/05/30 04:47:29;;;;;;;0.00;0.00;;;;;;;;;;1752018;28;20258;-73
2022/05/30 04:48:21;;;;;;;0.00;0.00;;;;;;;;;;1746585;28;20632;-73
2022/05/30 04:49:14;;;;;;;0.00;0.00;;;;;;;;;;1752064;28;20610;-73
2022/05/30 04:50:07;;;;;;;0.00;0.00;;;;;;;;;;1752065;28;20197;-72
2022/05/30 04:51:00;;;;;;;0.00;0.00;;;;;;;;;;1749627;28;20804;-73
2022/05/30 04:51:51;;;;;;;0.00;0.00;;;;;;;;;;1752540;28;20216;-73
2022/05/30 04:52:44;;;;;;;0.00;0.00;;;;;;;;;;1751751;28;20201;-73
2022/05/30 04:53:37;;;;;;;0.00;0.00;;;;;;;;;;1752119;28;20205;-73
2022/05/30 04:54:29;;;;;;;0.00;0.00;;;;;;;;;;1752516;28;20239;-73
2022/05/30 04:55:21;;;;;;;0.00;0.00;;;;;;;;;;1750495;28;20232;-73
2022/05/30 04:56:13;;;;;;;0.00;0.00;;;;;;;;;;1753025;28;20212;-73
2022/05/30 04:57:06;;;;;;;0.00;0.00;;;;;;;;;;1751674;28;20197;-72
2022/05/30 04:57:58;;;;;;;0.00;0.00;;;;;;;;;;1752827;28;20194;-73
2022/05/30 04:58:50;;;;;;;0.00;0.00;;;;;;;;;;1751297;28;20213;-73
2022/05/30 04:59:43;;;;;;;0.00;0.00;;;;;;;;;;1752788;28;20209;-73
2022/05/30 05:00:34;;;;;;;0.00;0.00;;;;;;;;;;1750734;28;20746;-73
2022/05/30 05:01:27;;;;;;;0.00;0.00;;;;;;;;;;1752352;28;20201;-73
2022/05/30 05:02:18;;;;;;;0.00;0.00;;;;;;;;;;1751897;28;20882;-73
2022/05/30 05:03:10;;;;;;;0.00;0.00;;;;;;;;;;1752738;28;20661;-73
2022/05/30 05:04:01;;;;;;;0.00;0.00;;;;;;;;;;1751928;28;20224;-73
2022/05/30 05:04:53;;;;;;;0.00;0.00;;;;;;;;;;1752076;28;20297;-73
2022/05/30 05:05:47;;;;;;;0.00;0.00;;;;;;;;;;1750569;28;20686;-73
2022/05/30 05:06:43;;;;;;;0.00;0.00;;;;;;;;;;1753091;28;20634;-73
2022/05/30 05:07:36;;;;;;;0.00;0.00;;;;;;;;;;1753306;28;20481;-73
2022/05/30 05:08:30;;;;;;;0.00;0.00;;;;;;;;;;1753319;28;20197;-73
2022/05/30 05:09:26;;;;;;;0.00;0.00;;;;;;;;;;1753681;28;20311;-73
2022/05/30 05:10:30;;;;;;;0.00;0.00;;;;;;;;;;1751848;28;20592;-73
2022/05/30 05:11:22;;;;;;;0.00;0.00;;;;;;;;;;1752647;28;20449;-73
2022/05/30 05:12:14;;;;;;;0.00;0.00;;;;;;;;;;1753005;28;20284;-72
2022/05/30 05:13:06;;;;;;;0.00;0.00;;;;;;;;;;1753922;28;20802;-73
2022/05/30 05:13:58;;;;;;;0.00;0.00;;;;;;;;;;1753436;28;20250;-73
2022/05/30 05:14:49;;;;;;;0.00;0.00;;;;;;;;;;1757154;28;20208;-73
2022/05/30 05:15:41;;;;;;;0.00;0.00;;;;;;;;;;1745901;28;20238;-73
2022/05/30 05:16:33;;;;;;;0.00;0.00;;;;;;;;;;1760568;28;20204;-73
2022/05/30 05:17:25;;;;;;;0.00;0.00;;;;;;;;;;1757441;28;20244;-72
2022/05/30 05:18:16;;;;;;;0.00;0.00;;;;;;;;;;1754202;28;20201;-72
2022/05/30 05:19:09;;;;;;;0.00;0.00;;;;;;;;;;1753106;28;20209;-72
2022/05/30 05:20:00;;;;;;;0.00;0.00;;;;;;;;;;1753718;28;20198;-73
2022/05/30 05:20:52;;;;;;;0.00;0.00;;;;;;;;;;1751989;28;20229;-73
2022/05/30 05:21:45;;;;;;;0.00;0.00;;;;;;;;;;1753478;28;20216;-73
2022/05/30 05:22:37;;;;;;;0.00;0.00;;;;;;;;;;1753488;28;20198;-73
2022/05/30 05:23:29;;;;;;;0.00;0.00;;;;;;;;;;1752435;28;20197;-73